Home > Products > Valid Products > TAF

000
FTUS43 KMPX 312320
TAFEAU
TAF
KEAU 312320Z 0100/0124 18007KT P6SM FEW050 FEW250
     FM010600 VRB04KT P6SM FEW050 SCT090
     FM011000 VRB03KT 2SM BR BKN005
     FM011500 20005KT P6SM SCT250
     FM011900 21006KT P6SM FEW100 BKN200=



000
FTUS43 KMPX 312320
TAFAXN
TAF
KAXN 312320Z 0100/0124 23008KT P6SM FEW050 SCT200
     FM010400 25004KT P6SM SCT090 BKN250
     FM010800 VRB04KT P6SM SCT090 BKN200
     FM011100 13004KT P6SM BKN250
     FM011500 18008KT P6SM SCT250=



000
FTUS43 KMPX 312320
TAFMSP
TAF
KMSP 312320Z 0100/0206 20010KT P6SM FEW040
     FM010600 20006KT P6SM FEW090 SCT250
     FM011200 19005KT P6SM SCT120 BKN200
     FM011900 19008G15KT P6SM SCT040 BKN200
     FM020100 18004KT P6SM SCT150 BKN200=



000
FTUS43 KMPX 312320
TAFSTC
TAF
KSTC 312320Z 0100/0124 19009KT P6SM FEW050 FEW250
     FM011100 VRB03KT P6SM SCT070 BKN090
     FM011500 19007KT P6SM SCT090 BKN200=



000
FTUS43 KMPX 312320
TAFRWF
TAF
KRWF 312320Z 0100/0124 19011KT P6SM FEW090 FEW250
     FM010300 18006KT P6SM FEW090 SCT250
     FM011300 20004KT P6SM BKN070 BKN090
     FM011500 17004KT P6SM SCT090 BKN200=



000
FTUS43 KMPX 312113 AAA
TAFMSP
TAF AMD
KMSP 312113Z 3121/0124 20013G22KT P6SM FEW040
     FM010100 18008KT P6SM SCT250
     FM011200 19006KT P6SM BKN120=



000
FTUS43 KMPX 311740
TAFEAU
TAF
KEAU 311740Z 3118/0118 18009KT P6SM BKN012
     FM311900 19011G18KT P6SM FEW025
     FM010000 18007KT P6SM SCT250
     FM011000 18003KT 2SM BR OVC005
     FM011530 20007KT P6SM SCT250=



000
FTUS43 KMPX 311740
TAFRWF
TAF
KRWF 311740Z 3118/0118 19018G26KT P6SM FEW250
     FM010000 19008KT P6SM SCT120 BKN200
     FM010900 20005KT 6SM BR BKN250
     FM011500 17004KT P6SM SCT250=



000
FTUS43 KMPX 311740
TAFMSP
TAF
KMSP 311740Z 3118/0124 18013G21KT P6SM SCT025
     FM010100 18008KT P6SM SCT250
     FM011200 19006KT P6SM BKN120=



000
FTUS43 KMPX 311740
TAFAXN
TAF
KAXN 311740Z 3118/0118 20018G27KT P6SM SCT250
     FM312300 21007KT P6SM SCT120 BKN200
     FM010800 VRB04KT P6SM SCT070 OVC150
     FM011500 13004KT P6SM SCT250=



000
FTUS43 KMPX 311740
TAFSTC
TAF
KSTC 311740Z 3118/0118 19016G25KT P6SM SKC
     FM010000 18006KT P6SM SCT120 BKN200
     FM010600 19004KT 6SM BR SCT080 BKN150=



000
FTUS43 KMPX 311740
TAFMSP
TAF
KMSP 311740Z 3118/0124 18013G21KT P6SM SCT025
     FM010100 18008KT P6SM SCT250
     FM011200 19006KT P6SM BKN120=



000
FTUS43 KMPX 311740
TAFEAU
TAF
KEAU 311740Z 3118/0118 18009KT P6SM BKN012
     FM311900 19011G18KT P6SM FEW025
     FM010000 18007KT P6SM SCT250
     FM011000 18003KT 2SM BR OVC005
     FM011530 20007KT P6SM SCT250=



000
FTUS43 KMPX 311740
TAFSTC
TAF
KSTC 311740Z 3118/0118 19016G25KT P6SM SKC
     FM010000 18006KT P6SM SCT120 BKN200
     FM010600 19004KT 6SM BR SCT080 BKN150=



000
FTUS43 KMPX 311740
TAFAXN
TAF
KAXN 311740Z 3118/0118 20018G27KT P6SM SCT250
     FM312300 21007KT P6SM SCT120 BKN200
     FM010800 VRB04KT P6SM SCT070 OVC150
     FM011500 13004KT P6SM SCT250=



000
FTUS43 KMPX 311740
TAFRWF
TAF
KRWF 311740Z 3118/0118 19018G26KT P6SM FEW250
     FM010000 19008KT P6SM SCT120 BKN200
     FM010900 20005KT 6SM BR BKN250
     FM011500 17004KT P6SM SCT250=



000
FTUS43 KMPX 311557 AAC
TAFMSP
TAF AMD
KMSP 311557Z 3116/0118 18010KT P6SM BKN015
     FM311700 19015G24KT P6SM SCT250
     FM010100 18008KT P6SM SCT250
     FM011200 19006KT P6SM BKN120=



000
FTUS43 KMPX 311453 AAB
TAFEAU
TAF AMD
KEAU 311453Z 3115/0112 18005KT P6SM BKN008
     FM311600 19011G18KT P6SM SKC
     FM010000 18007KT P6SM SCT250
     FM011000 18003KT 2SM BR SCT010=



000
FTUS43 KMPX 311453 AAB
TAFEAU
TAF AMD
KEAU 311453Z 3115/0112 18005KT P6SM BKN008
     FM311600 19011G18KT P6SM SKC
     FM010000 18007KT P6SM SCT250
     FM011000 18003KT 2SM BR SCT010=



000
FTUS43 KMPX 311449 AAB
TAFMSP
TAF AMD
KMSP 311449Z 3115/0118 17008KT P6SM SCT010
      TEMPO 3115/3116 BKN010
     FM311600 18012G21KT P6SM SKC
     FM311800 19015G24KT P6SM BKN250
     FM010100 18008KT P6SM SCT250
     FM011200 19006KT P6SM BKN120=



000
FTUS43 KMPX 311331 AAA
TAFMSP
TAF AMD
KMSP 311331Z 3114/0118 17008KT P6SM SCT012
     FM311500 19014G22KT P6SM SKC
     FM311800 19017G25KT P6SM BKN250
     FM010100 18008KT P6SM SCT250
     FM011200 19006KT P6SM BKN120=



000
FTUS43 KMPX 311253 AAA
TAFEAU
TAF AMD
KEAU 311253Z 3113/0112 19004KT 3SM BR OVC004
     FM311500 19009KT P6SM BKN010
     FM311700 19014G20KT P6SM SKC
     FM010000 18007KT P6SM SCT250
     FM011000 18003KT 2SM BR SCT010=



000
FTUS43 KMPX 311253 AAA
TAFEAU
TAF AMD
KEAU 311253Z 3113/0112 19004KT 3SM BR OVC004
     FM311500 19009KT P6SM BKN010
     FM311700 19014G20KT P6SM SKC
     FM010000 18007KT P6SM SCT250
     FM011000 18003KT 2SM BR SCT010=



000
FTUS43 KMPX 311121
TAFMSP
TAF
KMSP 311121Z 3112/0118 16006KT 6SM BR OVC007
     FM311400 19010KT P6SM BKN010
     FM311500 19014G22KT P6SM SKC
     FM311800 19017G25KT P6SM BKN250
     FM010100 18008KT P6SM SCT250
     FM011200 19006KT P6SM BKN120=



000
FTUS43 KMPX 311121
TAFAXN
TAF
KAXN 311121Z 3112/0112 18012KT 6SM BR SCT010
     FM311400 19015G23KT P6SM SKC
     FM311700 20018G27KT P6SM SCT250
     FM312300 21007KT P6SM SCT120 BKN200
     FM010800 VRB04KT P6SM SCT070 OVC150=



000
FTUS43 KMPX 311121
TAFSTC
TAF
KSTC 311121Z 3112/0112 17008KT 4SM BR SCT007
      TEMPO 3112/3114 6SM BR BKN007
     FM311400 19012G18KT P6SM SCT012
     FM311500 19018G27KT P6SM SKC
     FM010000 18006KT P6SM SCT120 BKN200
     FM010600 19004KT 6SM BR SCT010 BKN200=



000
FTUS43 KMPX 311121
TAFEAU
TAF
KEAU 311121Z 3112/0112 19004KT 6SM BR OVC006
     FM311500 19009KT P6SM BKN010
     FM311700 19014G20KT P6SM SKC
     FM010000 18007KT P6SM SCT250
     FM011000 18003KT 2SM BR SCT010=



000
FTUS43 KMPX 311121
TAFRWF
TAF
KRWF 311121Z 3112/0112 18010KT 6SM BR SCT006
     FM311400 19018G26KT P6SM SKC
     FM010000 19008KT P6SM SCT120 BKN250
     FM010900 20005KT 5SM BR BKN250=



000
FTUS43 KMPX 311121
TAFSTC
TAF
KSTC 311121Z 3112/0112 17008KT 4SM BR SCT007
      TEMPO 3112/3114 6SM BR BKN007
     FM311400 19012G18KT P6SM SCT012
     FM311500 19018G27KT P6SM SKC
     FM010000 18006KT P6SM SCT120 BKN200
     FM010600 19004KT 6SM BR SCT010 BKN200=



000
FTUS43 KMPX 311121
TAFAXN
TAF
KAXN 311121Z 3112/0112 18012KT 6SM BR SCT010
     FM311400 19015G23KT P6SM SKC
     FM311700 20018G27KT P6SM SCT250
     FM312300 21007KT P6SM SCT120 BKN200
     FM010800 VRB04KT P6SM SCT070 OVC150=



000
FTUS43 KMPX 311121
TAFMSP
TAF
KMSP 311121Z 3112/0118 16006KT 6SM BR OVC007
     FM311400 19010KT P6SM BKN010
     FM311500 19014G22KT P6SM SKC
     FM311800 19017G25KT P6SM BKN250
     FM010100 18008KT P6SM SCT250
     FM011200 19006KT P6SM BKN120=



000
FTUS43 KMPX 311121
TAFRWF
TAF
KRWF 311121Z 3112/0112 18010KT 6SM BR SCT006
     FM311400 19018G26KT P6SM SKC
     FM010000 19008KT P6SM SCT120 BKN250
     FM010900 20005KT 5SM BR BKN250=



000
FTUS43 KMPX 311121
TAFEAU
TAF
KEAU 311121Z 3112/0112 19004KT 6SM BR OVC006
     FM311500 19009KT P6SM BKN010
     FM311700 19014G20KT P6SM SKC
     FM010000 18007KT P6SM SCT250
     FM011000 18003KT 2SM BR SCT010=



000
FTUS43 KMPX 310847 AAB
TAFMSP
TAF AMD
KMSP 310847Z 3109/0112 18007KT 6SM BR SCT006 BKN300
     FM311030 18006KT 6SM BR OVC006
      TEMPO 3111/3114 SCT006
     FM311400 19010KT P6SM BKN010
     FM311500 19014G22KT P6SM SKC
     FM010100 18008KT P6SM SCT250=



000
FTUS43 KMPX 310717 AAA
TAFEAU
TAF AMD
KEAU 310717Z 3107/0106 19004KT 6SM BR SCT006
     FM310830 19004KT 3SM BR OVC006
      TEMPO 3109/3111 6SM BR SCT006
     FM311500 19009KT P6SM BKN010
     FM311700 19014G20KT P6SM SKC
     FM010000 18007KT P6SM SCT250=



000
FTUS43 KMPX 310717 AAA
TAFEAU
TAF AMD
KEAU 310717Z 3107/0106 19004KT 6SM BR SCT006
     FM310830 19004KT 3SM BR OVC006
      TEMPO 3109/3111 6SM BR SCT006
     FM311500 19009KT P6SM BKN010
     FM311700 19014G20KT P6SM SKC
     FM010000 18007KT P6SM SCT250=



000
FTUS43 KMPX 310708 AAA
TAFMSP
TAF AMD
KMSP 310708Z 3107/0112 18007KT 6SM BR SCT006 BKN300
     FM310930 18006KT 6SM BR OVC006
      TEMPO 3111/3114 SCT006
     FM311400 19010KT P6SM BKN010
     FM311500 19014G22KT P6SM SKC
     FM010100 18008KT P6SM SCT250=



000
FTUS43 KMPX 310520
TAFRWF
TAF
KRWF 310520Z 3106/0106 18010KT 6SM BR BKN100
     FM310700 18010KT 6SM BR SCT006
      TEMPO 3107/3111 3SM BR OVC006
     FM311400 19018G26KT P6SM SKC
     FM010000 19008KT P6SM SCT120 BKN250=



000
FTUS43 KMPX 310520
TAFRWF
TAF
KRWF 310520Z 3106/0106 18010KT 6SM BR BKN100
     FM310700 18010KT 6SM BR SCT006
      TEMPO 3107/3111 3SM BR OVC006
     FM311400 19018G26KT P6SM SKC
     FM010000 19008KT P6SM SCT120 BKN250=



000
FTUS43 KMPX 310520
TAFMSP
TAF
KMSP 310520Z 3106/0112 18007KT 6SM BR BKN150
     FM310700 18006KT 6SM BR OVC006
      TEMPO 3107/3110 SCT006
     FM311400 19010KT P6SM BKN010
     FM311500 19014G22KT P6SM SKC
     FM010100 18008KT P6SM SCT250=



000
FTUS43 KMPX 310520
TAFMSP
TAF
KMSP 310520Z 3106/0112 18007KT 6SM BR BKN150
     FM310700 18006KT 6SM BR OVC006
      TEMPO 3107/3110 SCT006
     FM311400 19010KT P6SM BKN010
     FM311500 19014G22KT P6SM SKC
     FM010100 18008KT P6SM SCT250=



000
FTUS43 KMPX 310520
TAFEAU
TAF
KEAU 310520Z 3106/0106 19004KT 6SM BR SKC
     FM310700 19004KT 3SM BR OVC006
      TEMPO 3107/3110 6SM BR SCT006
     FM311500 19009KT P6SM BKN010
     FM311700 19014G20KT P6SM SKC
     FM010000 18007KT P6SM SCT250=



000
FTUS43 KMPX 310520
TAFAXN
TAF
KAXN 310520Z 3106/0106 18012KT 6SM BR SKC
     FM311500 20018G27KT P6SM SCT250
     FM312300 21007KT P6SM SCT120 BKN200=



000
FTUS43 KMPX 310520
TAFSTC
TAF
KSTC 310520Z 3106/0106 17007KT P6SM SCT010
     FM310700 17006KT 4SM BR OVC006
      TEMPO 3107/3109 6SM BR SCT006
     FM311400 19012G18KT P6SM SCT012
     FM311500 19018G26KT P6SM SKC
     FM010000 18006KT P6SM SCT120 BKN200=



000
FTUS43 KMPX 310520
TAFEAU
TAF
KEAU 310520Z 3106/0106 19004KT 6SM BR SKC
     FM310700 19004KT 3SM BR OVC006
      TEMPO 3107/3110 6SM BR SCT006
     FM311500 19009KT P6SM BKN010
     FM311700 19014G20KT P6SM SKC
     FM010000 18007KT P6SM SCT250=



000
FTUS43 KMPX 310520
TAFAXN
TAF
KAXN 310520Z 3106/0106 18012KT 6SM BR SKC
     FM311500 20018G27KT P6SM SCT250
     FM312300 21007KT P6SM SCT120 BKN200=



000
FTUS43 KMPX 310520
TAFSTC
TAF
KSTC 310520Z 3106/0106 17007KT P6SM SCT010
     FM310700 17006KT 4SM BR OVC006
      TEMPO 3107/3109 6SM BR SCT006
     FM311400 19012G18KT P6SM SCT012
     FM311500 19018G26KT P6SM SKC
     FM010000 18006KT P6SM SCT120 BKN200=



000
FTUS43 KMPX 310306 AAA
TAFMSP
TAF AMD
KMSP 310306Z 3103/0106 17008KT P6SM BKN250
     FM310500 18006KT 6SM BR BKN007
     FM311500 18014G22KT P6SM SKC
     FM010000 17008KT P6SM SKC=



000
FTUS43 KMPX 310306 AAA
TAFMSP
TAF AMD
KMSP 310306Z 3103/0106 17008KT P6SM BKN250
     FM310500 18006KT 6SM BR BKN007
     FM311500 18014G22KT P6SM SKC
     FM010000 17008KT P6SM SKC=



000
FTUS43 KMPX 302323
TAFEAU
TAF
KEAU 302323Z 3100/3124 19005KT P6SM SKC
     FM310500 19004KT 5SM BR OVC005
     FM311600 19010KT P6SM BKN010
     FM311800 19014G20KT P6SM SKC=



000
FTUS43 KMPX 302323
TAFAXN
TAF
KAXN 302323Z 3100/3124 18012KT P6SM SKC
     FM311500 20017G26KT P6SM SKC
     FM312200 21012KT P6SM SKC=



000
FTUS43 KMPX 302323
TAFSTC
TAF
KSTC 302323Z 3100/3124 17007KT P6SM SKC
     FM310600 17006KT P6SM BKN007
     FM311500 19017G26KT P6SM SKC=



000
FTUS43 KMPX 302323
TAFMSP
TAF
KMSP 302323Z 3100/0106 18008KT P6SM SKC
     FM310500 18006KT 6SM BR BKN007
     FM311500 18014G22KT P6SM SKC
     FM010000 17008KT P6SM SKC=



000
FTUS43 KMPX 302323
TAFRWF
TAF
KRWF 302323Z 3100/3124 18010KT P6SM SKC
      TEMPO 3106/3110 SCT007
     FM311400 19018G26KT P6SM SKC
     FM312300 20012KT P6SM SKC=



000
FTUS43 KMPX 302323
TAFAXN
TAF
KAXN 302323Z 3100/3124 18012KT P6SM SKC
     FM311500 20017G26KT P6SM SKC
     FM312200 21012KT P6SM SKC=



000
FTUS43 KMPX 302323
TAFMSP
TAF
KMSP 302323Z 3100/0106 18008KT P6SM SKC
     FM310500 18006KT 6SM BR BKN007
     FM311500 18014G22KT P6SM SKC
     FM010000 17008KT P6SM SKC=



000
FTUS43 KMPX 302323
TAFRWF
TAF
KRWF 302323Z 3100/3124 18010KT P6SM SKC
      TEMPO 3106/3110 SCT007
     FM311400 19018G26KT P6SM SKC
     FM312300 20012KT P6SM SKC=



000
FTUS43 KMPX 302323
TAFEAU
TAF
KEAU 302323Z 3100/3124 19005KT P6SM SKC
     FM310500 19004KT 5SM BR OVC005
     FM311600 19010KT P6SM BKN010
     FM311800 19014G20KT P6SM SKC=



000
FTUS43 KMPX 302323
TAFSTC
TAF
KSTC 302323Z 3100/3124 17007KT P6SM SKC
     FM310600 17006KT P6SM BKN007
     FM311500 19017G26KT P6SM SKC=



000
FTUS43 KMPX 302114 AAA
TAFMSP
TAF AMD
KMSP 302114Z 3021/3124 18011KT P6SM SKC
     FM310100 18007KT P6SM SKC
     FM311000 18006KT P6SM SCT008
     FM311500 18014G20KT P6SM SKC=



000
FTUS43 KMPX 301726 CCA
TAFEAU
TAF COR
KEAU 301726Z 3018/3118 20010KT P6SM SCT200
     FM310000 19005KT P6SM SKC
     FM310900 18004KT 3SM BR OVC005
     FM311500 20009KT P6SM SKC=



000
FTUS43 KMPX 301726 CCA
TAFEAU
TAF COR
KEAU 301726Z 3018/3118 20010KT P6SM SCT200
     FM310000 19005KT P6SM SKC
     FM310900 18004KT 3SM BR OVC005
     FM311500 20009KT P6SM SKC=



000
FTUS43 KMPX 301725
TAFSTC
TAF
KSTC 301725Z 3018/3118 18011G17KT P6SM FEW200
     FM310000 17007KT P6SM SKC
     FM311000 17006KT P6SM SCT006
     FM311400 19015G21KT P6SM SKC=



000
FTUS43 KMPX 301725
TAFMSP
TAF
KMSP 301725Z 3018/3124 19012KT P6SM SCT200
     FM310000 18006KT P6SM SKC
     FM311000 18006KT P6SM SCT008
     FM311500 18014G20KT P6SM SKC=



000
FTUS43 KMPX 301725
TAFAXN
TAF
KAXN 301725Z 3018/3118 18013G20KT P6SM SCT200
     FM310000 18010KT P6SM SKC
     FM311500 20016G22KT P6SM SKC=



000
FTUS43 KMPX 301725
TAFEAU
TAF
KEAU 301725Z 3018/3118 20010KT P6SM BKN015
     FM301830 20010KT P6SM SCT200
     FM310000 19005KT P6SM SKC
     FM310900 18004KT 3SM BR OVC005
     FM311500 20009KT P6SM SKC=



000
FTUS43 KMPX 301725
TAFRWF
TAF
KRWF 301725Z 3018/3118 17012G20KT P6SM FEW200
     FM310000 18010KT P6SM SKC
     FM311500 19016G24KT P6SM SKC=



000
FTUS43 KMPX 301725
TAFRWF
TAF
KRWF 301725Z 3018/3118 17012G20KT P6SM FEW200
     FM310000 18010KT P6SM SKC
     FM311500 19016G24KT P6SM SKC=



000
FTUS43 KMPX 301725
TAFEAU
TAF
KEAU 301725Z 3018/3118 20010KT P6SM BKN015
     FM301830 20010KT P6SM SCT200
     FM310000 19005KT P6SM SKC
     FM310900 18004KT 3SM BR OVC005
     FM311500 20009KT P6SM SKC=



000
FTUS43 KMPX 301725
TAFSTC
TAF
KSTC 301725Z 3018/3118 18011G17KT P6SM FEW200
     FM310000 17007KT P6SM SKC
     FM311000 17006KT P6SM SCT006
     FM311400 19015G21KT P6SM SKC=



000
FTUS43 KMPX 301725
TAFAXN
TAF
KAXN 301725Z 3018/3118 18013G20KT P6SM SCT200
     FM310000 18010KT P6SM SKC
     FM311500 20016G22KT P6SM SKC=



000
FTUS43 KMPX 301725
TAFMSP
TAF
KMSP 301725Z 3018/3124 19012KT P6SM SCT200
     FM310000 18006KT P6SM SKC
     FM311000 18006KT P6SM SCT008
     FM311500 18014G20KT P6SM SKC=



000
FTUS43 KMPX 301454 AAA
TAFMSP
TAF AMD
KMSP 301454Z 3015/3118 19009KT P6SM BKN012
     FM301530 19011KT P6SM SCT015
     FM301700 19012KT P6SM SCT200
     FM310000 18006KT P6SM SKC=



000
FTUS43 KMPX 301454 AAA
TAFMSP
TAF AMD
KMSP 301454Z 3015/3118 19009KT P6SM BKN012
     FM301530 19011KT P6SM SCT015
     FM301700 19012KT P6SM SCT200
     FM310000 18006KT P6SM SKC=



000
FTUS43 KMPX 301347 AAB
TAFAXN
TAF AMD
KAXN 301347Z 3014/3112 19013G20KT P6SM SCT200
     FM310000 18009KT P6SM SKC=



000
FTUS43 KMPX 301333 AAA
TAFSTC
TAF AMD
KSTC 301333Z 3014/3112 19008KT 6SM BR OVC005
     FM301530 19010KT P6SM SCT015
     FM301700 19011G17KT P6SM FEW200
     FM310000 17007KT P6SM SKC=



000
FTUS43 KMPX 301214 AAA
TAFRWF
TAF AMD
KRWF 301214Z 3012/3112 18010KT P6SM OVC008
     FM301500 19010KT P6SM SCT200
     FM301700 19014G22KT P6SM FEW200
     FM310000 18010KT P6SM SKC=



000
FTUS43 KMPX 301214 AAA
TAFRWF
TAF AMD
KRWF 301214Z 3012/3112 18010KT P6SM OVC008
     FM301500 19010KT P6SM SCT200
     FM301700 19014G22KT P6SM FEW200
     FM310000 18010KT P6SM SKC=



000
FTUS43 KMPX 301213 AAA
TAFEAU
TAF AMD
KEAU 301213Z 3012/3112 17003KT 6SM BR SCT003
      TEMPO 3013/3015 2SM BR OVC003
     FM301500 20007KT P6SM BKN012
     FM301600 20010KT P6SM FEW200
     FM310000 19005KT P6SM SKC=



000
FTUS43 KMPX 301213 AAA
TAFEAU
TAF AMD
KEAU 301213Z 3012/3112 17003KT 6SM BR SCT003
      TEMPO 3013/3015 2SM BR OVC003
     FM301500 20007KT P6SM BKN012
     FM301600 20010KT P6SM FEW200
     FM310000 19005KT P6SM SKC=



000
FTUS43 KMPX 301210 AAA
TAFAXN
TAF AMD
KAXN 301210Z 3012/3112 18011KT 2SM BR BKN004
     FM301430 19013G20KT P6SM SCT200
     FM310000 18009KT P6SM SKC=



000
FTUS43 KMPX 301210 AAA
TAFAXN
TAF AMD
KAXN 301210Z 3012/3112 18011KT 2SM BR BKN004
     FM301430 19013G20KT P6SM SCT200
     FM310000 18009KT P6SM SKC=



000
FTUS43 KMPX 301133
TAFSTC
TAF
KSTC 301133Z 3012/3112 18008KT 6SM BR OVC005
      TEMPO 3012/3014 P6SM NSW SCT005
     FM301400 19010KT P6SM SCT015
     FM301700 19011G17KT P6SM FEW200
     FM310000 17007KT P6SM SKC=



000
FTUS43 KMPX 301133
TAFRWF
TAF
KRWF 301133Z 3012/3112 18007KT P6SM OVC008
      TEMPO 3012/3013 5SM BR SCT009
     FM301300 19010KT P6SM SCT200
     FM301700 19014G22KT P6SM FEW200
     FM310000 18010KT P6SM SKC=



000
FTUS43 KMPX 301133
TAFEAU
TAF
KEAU 301133Z 3012/3112 17003KT 5SM BR SCT008
      TEMPO 3012/3014 P6SM NSW BKN008
     FM301500 20007KT P6SM BKN012
     FM301600 20010KT P6SM FEW200
     FM310000 19005KT P6SM SKC=



000
FTUS43 KMPX 301133
TAFMSP
TAF
KMSP 301133Z 3012/3118 18007KT P6SM BKN008
      TEMPO 3012/3013 6SM BR SCT006
     FM301300 19009KT P6SM BKN007
     FM301530 19011KT P6SM SCT007
     FM301700 19012KT P6SM SCT200
     FM310000 18006KT P6SM SKC=



000
FTUS43 KMPX 301133
TAFAXN
TAF
KAXN 301133Z 3012/3112 18009KT P6SM SCT200
     FM301500 19009G15KT P6SM SCT200
     FM310000 18009KT P6SM SKC=



000
FTUS43 KMPX 300914 AAC
TAFRWF
TAF AMD
KRWF 300914Z 3009/3106 18005KT 6SM BR OVC005
     FM301300 19009KT P6SM BKN009
      TEMPO 3013/3015 SCT010
     FM301500 19010KT P6SM SKC
     FM301700 19014G22KT P6SM SKC
     FM310000 18010KT P6SM SKC=



000
FTUS43 KMPX 300912 AAA
TAFSTC
TAF AMD
KSTC 300912Z 3009/3106 16004KT 5SM BR OVC003
      TEMPO 3009/3012 2SM BR
     FM301500 19010KT P6SM SCT015
     FM301700 19012G19KT P6SM SKC
     FM310000 17007KT P6SM SKC=



000
FTUS43 KMPX 300912 AAA
TAFSTC
TAF AMD
KSTC 300912Z 3009/3106 16004KT 5SM BR OVC003
      TEMPO 3009/3012 2SM BR
     FM301500 19010KT P6SM SCT015
     FM301700 19012G19KT P6SM SKC
     FM310000 17007KT P6SM SKC=



000
FTUS43 KMPX 300847 AAB
TAFMSP
TAF AMD
KMSP 300847Z 3009/3112 16005KT 6SM BR OVC005
     FM300915 18004KT 6SM BR SCT004
      TEMPO 3011/3013 BKN005
     FM301300 19009KT P6SM BKN006
     FM301430 19011KT P6SM SCT007
     FM301700 19012KT P6SM SKC
     FM310000 18006KT P6SM SKC=



000
FTUS43 KMPX 300834 AAA
TAFEAU
TAF AMD
KEAU 300834Z 3009/3106 18004KT 6SM BR SKC
     FM300930 19003KT 5SM BR SCT003 BKN008
      TEMPO 3010/3012 2SM BR OVC003
     FM301500 20007KT P6SM BKN012
     FM301700 20010KT P6SM SKC
     FM310000 19005KT P6SM SKC=



000
FTUS43 KMPX 300828 AAB
TAFRWF
TAF AMD
KRWF 300828Z 3008/3106 18005KT 5SM BR OVC004
      TEMPO 3012/3015 BKN006
     FM301500 19010KT P6SM SKC
     FM301700 19014G22KT P6SM SKC
     FM310000 18010KT P6SM SKC=



000
FTUS43 KMPX 300826 AAA
TAFAXN
TAF AMD
KAXN 300826Z 3008/3106 18009KT P6SM SCT006
      TEMPO 3010/3012 BKN005
     FM301500 19009KT P6SM SKC
     FM301800 19013G20KT P6SM SKC
     FM310000 18010KT P6SM SKC=



000
FTUS43 KMPX 300826 AAA
TAFAXN
TAF AMD
KAXN 300826Z 3008/3106 18009KT P6SM SCT006
      TEMPO 3010/3012 BKN005
     FM301500 19009KT P6SM SKC
     FM301800 19013G20KT P6SM SKC
     FM310000 18010KT P6SM SKC=



000
FTUS43 KMPX 300735 AAA
TAFMSP
TAF AMD
KMSP 300735Z 3008/3112 16005KT 2SM BR OVC002
     FM301200 19009KT P6SM BKN006
     FM301500 19009KT P6SM BKN012
     FM301700 19011KT P6SM SKC
     FM310000 18006KT P6SM SKC=



000
FTUS43 KMPX 300708 AAA
TAFRWF
TAF AMD
KRWF 300708Z 3007/3106 18005KT 5SM BR BKN004
      TEMPO 3008/3012 2SM BR
     FM301500 19010KT P6SM SKC
     FM301700 19014G22KT P6SM SKC
     FM310000 18010KT P6SM SKC=



000
FTUS43 KMPX 300708 AAA
TAFRWF
TAF AMD
KRWF 300708Z 3007/3106 18005KT 5SM BR BKN004
      TEMPO 3008/3012 2SM BR
     FM301500 19010KT P6SM SKC
     FM301700 19014G22KT P6SM SKC
     FM310000 18010KT P6SM SKC=



000
FTUS43 KMPX 300523
TAFAXN
TAF
KAXN 300523Z 3006/3106 18009KT P6SM SCT006
      TEMPO 3007/3011 BKN005
     FM301500 19009KT P6SM SKC
     FM301800 19013G20KT P6SM SKC
     FM310000 18010KT P6SM SKC=



000
FTUS43 KMPX 300523
TAFEAU
TAF
KEAU 300523Z 3006/3106 18004KT 6SM BR SKC
     FM300800 19003KT 5SM BR SCT003 BKN008
      TEMPO 3008/3012 2SM BR OVC003
     FM301500 20007KT P6SM BKN012
     FM301700 20010KT P6SM SKC
     FM310000 19005KT P6SM SKC=



000
FTUS43 KMPX 300523
TAFMSP
TAF
KMSP 300523Z 3006/3112 17005KT 5SM BR BKN250
     FM300730 17005KT 4SM BR SCT003 OVC006
      TEMPO 3008/3012 2SM BR OVC003
     FM301500 19009KT P6SM BKN012
     FM301700 19011KT P6SM SKC
     FM310000 18006KT P6SM SKC=



000
FTUS43 KMPX 300523
TAFRWF
TAF
KRWF 300523Z 3006/3106 17008KT 6SM BR SKC
     FM300700 18005KT 5SM BR SCT003 BKN007
      TEMPO 3008/3012 2SM BR OVC003
     FM301500 19010KT P6SM SKC
     FM301700 19014G22KT P6SM SKC
     FM310000 18010KT P6SM SKC=



000
FTUS43 KMPX 300523
TAFSTC
TAF
KSTC 300523Z 3006/3106 17005KT 5SM BR SKC
     FM300800 17005KT 4SM BR SCT003 BKN008
      TEMPO 3008/3012 2SM BR OVC003
     FM301500 19010KT P6SM SCT015
     FM301700 19012G19KT P6SM SKC
     FM310000 17007KT P6SM SKC=



000
FTUS43 KMPX 300256 AAA
TAFMSP
TAF AMD
KMSP 300256Z 3003/3106 16004KT P6SM BKN250
     FM300700 17005KT 5SM BCFG SCT003 OVC012
     FM301400 18007KT P6SM SCT015
     FM301600 18009KT P6SM SKC=



000
FTUS43 KMPX 292320
TAFEAU
TAF
KEAU 292320Z 3000/3024 VRB03KT P6SM SCT250
     FM300800 19003KT 2SM BCFG BKN003
     FM301400 20007KT P6SM BKN006
     FM301600 20010KT P6SM SKC=



000
FTUS43 KMPX 292320
TAFMSP
TAF
KMSP 292320Z 3000/3106 16004KT P6SM BKN250
     FM300700 17005KT 5SM BCFG SCT003
     FM301400 18009KT P6SM SKC=



000
FTUS43 KMPX 292320
TAFRWF
TAF
KRWF 292320Z 3000/3024 16007KT P6SM SCT250
     FM300600 18005KT 6SM BCFG FEW003
     FM301400 19010KT P6SM SKC
     FM301800 19014G22KT P6SM SKC=



000
FTUS43 KMPX 292320
TAFAXN
TAF
KAXN 292320Z 3000/3024 18008KT P6SM SCT250
     FM301500 19012G20KT P6SM SKC=



000
FTUS43 KMPX 292320
TAFSTC
TAF
KSTC 292320Z 3000/3024 17004KT P6SM BKN250
     FM301500 19012G19KT P6SM SKC=



000
FTUS43 KMPX 292320
TAFEAU
TAF
KEAU 292320Z 3000/3024 VRB03KT P6SM SCT250
     FM300800 19003KT 2SM BCFG BKN003
     FM301400 20007KT P6SM BKN006
     FM301600 20010KT P6SM SKC=



000
FTUS43 KMPX 292320
TAFSTC
TAF
KSTC 292320Z 3000/3024 17004KT P6SM BKN250
     FM301500 19012G19KT P6SM SKC=



000
FTUS43 KMPX 292320
TAFRWF
TAF
KRWF 292320Z 3000/3024 16007KT P6SM SCT250
     FM300600 18005KT 6SM BCFG FEW003
     FM301400 19010KT P6SM SKC
     FM301800 19014G22KT P6SM SKC=



000
FTUS43 KMPX 292320
TAFMSP
TAF
KMSP 292320Z 3000/3106 16004KT P6SM BKN250
     FM300700 17005KT 5SM BCFG SCT003
     FM301400 18009KT P6SM SKC=



000
FTUS43 KMPX 292320
TAFAXN
TAF
KAXN 292320Z 3000/3024 18008KT P6SM SCT250
     FM301500 19012G20KT P6SM SKC=



000
FTUS43 KMPX 292054 AAA
TAFMSP
TAF AMD
KMSP 292054Z 2921/3024 17004KT P6SM SCT250
     FM301000 18005KT 6SM BR FEW003
     FM301400 18009KT P6SM SKC=



000
FTUS43 KMPX 292054 AAA
TAFMSP
TAF AMD
KMSP 292054Z 2921/3024 17004KT P6SM SCT250
     FM301000 18005KT 6SM BR FEW003
     FM301400 18009KT P6SM SKC=



000
FTUS43 KMPX 291737
TAFMSP
TAF
KMSP 291737Z 2918/3024 14005KT P6SM BKN007
     FM291830 17005KT P6SM SCT012
     FM292100 17006KT P6SM SKC
     FM301000 18005KT 6SM BR FEW003
     FM301400 18009KT P6SM SKC=



000
FTUS43 KMPX 291737
TAFAXN
TAF
KAXN 291737Z 2918/3018 20011KT P6SM FEW250
     FM300000 18007KT P6SM SKC
     FM301500 19012KT P6SM SKC=



000
FTUS43 KMPX 291737
TAFEAU
TAF
KEAU 291737Z 2918/3018 VRB03KT P6SM BKN010
     FM291830 VRB03KT P6SM SCT015
     FM292000 VRB03KT P6SM SKC
     FM301000 18003KT 2SM BR OVC003
     FM301500 20007KT P6SM SKC=



000
FTUS43 KMPX 291737
TAFSTC
TAF
KSTC 291737Z 2918/3018 18006KT P6SM FEW250
     FM300100 17003KT P6SM SKC
     FM301500 18010KT P6SM SKC=



000
FTUS43 KMPX 291737
TAFRWF
TAF
KRWF 291737Z 2918/3018 18007KT P6SM SKC
     FM301500 19012G19KT P6SM SKC=



000
FTUS43 KMPX 291737
TAFAXN
TAF
KAXN 291737Z 2918/3018 20011KT P6SM FEW250
     FM300000 18007KT P6SM SKC
     FM301500 19012KT P6SM SKC=



000
FTUS43 KMPX 291737
TAFMSP
TAF
KMSP 291737Z 2918/3024 14005KT P6SM BKN007
     FM291830 17005KT P6SM SCT012
     FM292100 17006KT P6SM SKC
     FM301000 18005KT 6SM BR FEW003
     FM301400 18009KT P6SM SKC=



000
FTUS43 KMPX 291737
TAFSTC
TAF
KSTC 291737Z 2918/3018 18006KT P6SM FEW250
     FM300100 17003KT P6SM SKC
     FM301500 18010KT P6SM SKC=



000
FTUS43 KMPX 291737
TAFEAU
TAF
KEAU 291737Z 2918/3018 VRB03KT P6SM BKN010
     FM291830 VRB03KT P6SM SCT015
     FM292000 VRB03KT P6SM SKC
     FM301000 18003KT 2SM BR OVC003
     FM301500 20007KT P6SM SKC=



000
FTUS43 KMPX 291737
TAFRWF
TAF
KRWF 291737Z 2918/3018 18007KT P6SM SKC
     FM301500 19012G19KT P6SM SKC=



000
FTUS43 KMPX 291507 AAC
TAFRWF
TAF AMD
KRWF 291507Z 2915/3012 15003KT 1/2SM FG VV002
     FM291600 18004KT 3SM BR BKN005
     FM291800 18007KT P6SM SKC
     FM300500 18004KT 6SM BR SKC=



000
FTUS43 KMPX 291452 AAC
TAFMSP
TAF AMD
KMSP 291452Z 2915/3018 13005KT 3SM BR OVC003
     FM291600 15006KT P6SM BKN008
     FM291730 16006KT P6SM SCT020
     FM292000 17006KT P6SM SKC
     FM301400 19009KT P6SM SKC=



000
FTUS43 KMPX 291452 AAC
TAFMSP
TAF AMD
KMSP 291452Z 2915/3018 13005KT 3SM BR OVC003
     FM291600 15006KT P6SM BKN008
     FM291730 16006KT P6SM SCT020
     FM292000 17006KT P6SM SKC
     FM301400 19009KT P6SM SKC=



000
FTUS43 KMPX 291332 AAB
TAFEAU
TAF AMD
KEAU 291332Z 2914/3012 07004KT 6SM BR OVC007
     FM291700 08004KT P6SM BKN010
     FM291900 09004KT P6SM BKN020
     FM292100 13004KT P6SM SKC
     FM300700 18003KT 6SM BR SKC
      TEMPO 3008/3012 3SM BR=



000
FTUS43 KMPX 291331 AAB
TAFSTC
TAF AMD
KSTC 291331Z 2914/3012 15003KT 3SM BR SCT004
     FM291630 18008KT P6SM FEW250=



000
FTUS43 KMPX 291331 AAB
TAFSTC
TAF AMD
KSTC 291331Z 2914/3012 15003KT 3SM BR SCT004
     FM291630 18008KT P6SM FEW250=



000
FTUS43 KMPX 291331 AAB
TAFRWF
TAF AMD
KRWF 291331Z 2914/3012 18003KT 1/2SM FG VV002
     FM291530 18004KT 3SM BR BKN005
     FM291730 18007KT P6SM SKC
     FM300500 18004KT 6SM BR SKC=



000
FTUS43 KMPX 291331 AAB
TAFRWF
TAF AMD
KRWF 291331Z 2914/3012 18003KT 1/2SM FG VV002
     FM291530 18004KT 3SM BR BKN005
     FM291730 18007KT P6SM SKC
     FM300500 18004KT 6SM BR SKC=



000
FTUS43 KMPX 291329 AAB
TAFMSP
TAF AMD
KMSP 291329Z 2913/3018 13005KT 3SM BR OVC003
     FM291600 15006KT P6SM BKN008
     FM291730 16006KT P6SM SCT020
     FM292000 17006KT P6SM SKC
     FM301400 19009KT P6SM SKC=



000
FTUS43 KMPX 291255 AAA
TAFAXN
TAF AMD
KAXN 291255Z 2913/3012 20006KT P6SM BKN025
     FM291430 20009KT P6SM SCT025
     FM291800 20011KT P6SM SKC
     FM300000 18005KT P6SM SKC=



000
FTUS43 KMPX 291255 AAA
TAFAXN
TAF AMD
KAXN 291255Z 2913/3012 20006KT P6SM BKN025
     FM291430 20009KT P6SM SCT025
     FM291800 20011KT P6SM SKC
     FM300000 18005KT P6SM SKC=



000
FTUS43 KMPX 291243 AAA
TAFMSP
TAF AMD
KMSP 291243Z 2913/3018 11003KT 6SM BR OVC006
     FM291400 15006KT P6SM BKN014
     FM291600 16006KT P6SM SCT020
     FM292000 17006KT P6SM SKC
     FM301400 19009KT P6SM SKC=



000
FTUS43 KMPX 291208 AAA
TAFEAU
TAF AMD
KEAU 291208Z 2912/3012 05004KT 2SM BR OVC002
     FM291400 08004KT P6SM BKN010
     FM291600 09004KT P6SM OVC020
     FM291800 13004KT P6SM SKC
     FM300700 18003KT 6SM BR SKC
      TEMPO 3008/3012 3SM BR=



000
FTUS43 KMPX 291208 AAA
TAFEAU
TAF AMD
KEAU 291208Z 2912/3012 05004KT 2SM BR OVC002
     FM291400 08004KT P6SM BKN010
     FM291600 09004KT P6SM OVC020
     FM291800 13004KT P6SM SKC
     FM300700 18003KT 6SM BR SKC
      TEMPO 3008/3012 3SM BR=



000
FTUS43 KMPX 291207 AAA
TAFSTC
TAF AMD
KSTC 291207Z 2912/3012 00000KT 1SM BR SCT003
     FM291300 17003KT 3SM BR SCT004
     FM291400 18008KT P6SM FEW250=



000
FTUS43 KMPX 291203 AAA
TAFRWF
TAF AMD
KRWF 291203Z 2912/3012 18003KT 1/2SM FG VV002
     FM291330 18004KT 3SM BR BKN005
     FM291430 18007KT P6SM SKC
     FM300500 18004KT 6SM BR SKC=



000
FTUS43 KMPX 291203 AAA
TAFRWF
TAF AMD
KRWF 291203Z 2912/3012 18003KT 1/2SM FG VV002
     FM291330 18004KT 3SM BR BKN005
     FM291430 18007KT P6SM SKC
     FM300500 18004KT 6SM BR SKC=



000
FTUS43 KMPX 291120
TAFRWF
TAF
KRWF 291120Z 2912/3012 00000KT 6SM BR BKN002
      TEMPO 2912/2913 1SM BR
     FM291430 18007KT P6SM SKC
     FM300500 18004KT 6SM BR SKC=



000
FTUS43 KMPX 291120
TAFMSP
TAF
KMSP 291120Z 2912/3018 07003KT 4SM BR BCFG FEW009
      TEMPO 2912/2914 SCT009 BKN014
     FM291400 15006KT P6SM SCT014
     FM291800 16006KT P6SM SKC
     FM301400 19009KT P6SM SKC=



000
FTUS43 KMPX 291120
TAFMSP
TAF
KMSP 291120Z 2912/3018 07003KT 4SM BR BCFG FEW009
      TEMPO 2912/2914 SCT009 BKN014
     FM291400 15006KT P6SM SCT014
     FM291800 16006KT P6SM SKC
     FM301400 19009KT P6SM SKC=



000
FTUS43 KMPX 291120
TAFEAU
TAF
KEAU 291120Z 2912/3012 05004KT P6SM OVC007
      TEMPO 2912/2914 6SM BR OVC004
     FM291700 08004KT P6SM BKN010
     FM291900 09003KT P6SM OVC020
     FM292100 12002KT P6SM SKC
     FM300700 18003KT 6SM BR SKC
      TEMPO 3008/3012 3SM BR=



000
FTUS43 KMPX 291120
TAFAXN
TAF
KAXN 291120Z 2912/3012 20006KT P6SM FEW200
     FM291800 20011KT P6SM SKC
     FM300000 18005KT P6SM SKC=



000
FTUS43 KMPX 291120
TAFSTC
TAF
KSTC 291120Z 2912/3012 18008KT P6SM FEW250=



000
FTUS43 KMPX 291120
TAFSTC
TAF
KSTC 291120Z 2912/3012 18008KT P6SM FEW250=



000
FTUS43 KMPX 291120
TAFRWF
TAF
KRWF 291120Z 2912/3012 00000KT 6SM BR BKN002
      TEMPO 2912/2913 1SM BR
     FM291430 18007KT P6SM SKC
     FM300500 18004KT 6SM BR SKC=



000
FTUS43 KMPX 291120
TAFEAU
TAF
KEAU 291120Z 2912/3012 05004KT P6SM OVC007
      TEMPO 2912/2914 6SM BR OVC004
     FM291700 08004KT P6SM BKN010
     FM291900 09003KT P6SM OVC020
     FM292100 12002KT P6SM SKC
     FM300700 18003KT 6SM BR SKC
      TEMPO 3008/3012 3SM BR=



000
FTUS43 KMPX 291120
TAFAXN
TAF
KAXN 291120Z 2912/3012 20006KT P6SM FEW200
     FM291800 20011KT P6SM SKC
     FM300000 18005KT P6SM SKC=



000
FTUS43 KMPX 291059 AAE
TAFRWF
TAF AMD
KRWF 291059Z 2911/3006 00000KT 3SM BR BKN002
      TEMPO 2911/2912 1/2SM FG
     FM291400 18007KT P6SM SKC
     FM300500 18004KT 6SM BR SKC=



000
FTUS43 KMPX 291004 AAB
TAFEAU
TAF AMD
KEAU 291004Z 2910/3006 05004KT 6SM BR OVC007
      TEMPO 2910/2912 3SM BR OVC004
     FM291600 08004KT 6SM BR BKN010
     FM291800 09003KT P6SM OVC020
     FM300500 00000KT 6SM BR FEW025=



000
FTUS43 KMPX 291000 AAD
TAFRWF
TAF AMD
KRWF 291000Z 2910/3006 00000KT 6SM BR BKN002
      TEMPO 2910/2912 3SM BR
     FM291400 18007KT P6SM SKC
     FM300500 18004KT 6SM BR SKC=



000
FTUS43 KMPX 290953 AAA
TAFSTC
TAF AMD
KSTC 290953Z 2910/3006 14003KT 3SM BR SKC
      TEMPO 2910/2912 1 1/2SM BR SKC
     FM291200 18008KT P6SM SKC=



000
FTUS43 KMPX 290952 AAA
TAFAXN
TAF AMD
KAXN 290952Z 2910/3006 18006KT P6SM FEW200
     FM291800 19011KT P6SM SKC
     FM300000 18005KT P6SM SKC=



000
FTUS43 KMPX 290941 AAA
TAFMSP
TAF AMD
KMSP 290941Z 2910/3012 07003KT 4SM BR BCFG FEW009
      TEMPO 2910/2914 SCT009 BKN014
     FM291400 15006KT P6SM SKC=



000
FTUS43 KMPX 290941 AAA
TAFMSP
TAF AMD
KMSP 290941Z 2910/3012 07003KT 4SM BR BCFG FEW009
      TEMPO 2910/2914 SCT009 BKN014
     FM291400 15006KT P6SM SKC=



000
FTUS43 KMPX 290853 AAC
TAFRWF
TAF AMD
KRWF 290853Z 2909/3006 00000KT 1/2SM FG VV002
      TEMPO 2909/2911 3SM BR FEW002
     FM291100 16002KT 3SM BR SCT012
      TEMPO 2911/2913 6SM BR BKN010
     FM291400 17005KT P6SM SKC=



000
FTUS43 KMPX 290853 AAC
TAFRWF
TAF AMD
KRWF 290853Z 2909/3006 00000KT 1/2SM FG VV002
      TEMPO 2909/2911 3SM BR FEW002
     FM291100 16002KT 3SM BR SCT012
      TEMPO 2911/2913 6SM BR BKN010
     FM291400 17005KT P6SM SKC=



000
FTUS43 KMPX 290751 AAA
TAFEAU
TAF AMD
KEAU 290751Z 2908/3006 05004KT 6SM BR FEW200
      TEMPO 2908/2912 3SM BR BKN012
     FM291500 09004KT P6SM SCT020=



000
FTUS43 KMPX 290751 AAA
TAFEAU
TAF AMD
KEAU 290751Z 2908/3006 05004KT 6SM BR FEW200
      TEMPO 2908/2912 3SM BR BKN012
     FM291500 09004KT P6SM SCT020=



000
FTUS43 KMPX 290637 AAB
TAFRWF
TAF AMD
KRWF 290637Z 2907/3006 14002KT 1/2SM FG SKC
      TEMPO 2907/2909 3SM BR
     FM290900 16002KT 3SM BR SCT012
      TEMPO 2910/2913 6SM BR BKN012
     FM291400 17005KT P6SM SKC=



000
FTUS43 KMPX 290637 AAB
TAFRWF
TAF AMD
KRWF 290637Z 2907/3006 14002KT 1/2SM FG SKC
      TEMPO 2907/2909 3SM BR
     FM290900 16002KT 3SM BR SCT012
      TEMPO 2910/2913 6SM BR BKN012
     FM291400 17005KT P6SM SKC=



000
FTUS43 KMPX 290630 AAA
TAFRWF
TAF AMD
KRWF 290630Z 2907/3006 14002KT P6SM SKC
      TEMPO 2907/2909 2SM BR
     FM290900 16002KT 6SM BR SCT012
      TEMPO 2910/2913 2SM BR BKN012
     FM291400 17005KT P6SM SKC=



000
FTUS43 KMPX 290630 AAA
TAFRWF
TAF AMD
KRWF 290630Z 2907/3006 14002KT P6SM SKC
      TEMPO 2907/2909 2SM BR
     FM290900 16002KT 6SM BR SCT012
      TEMPO 2910/2913 2SM BR BKN012
     FM291400 17005KT P6SM SKC=



000
FTUS43 KMPX 290520
TAFRWF
TAF
KRWF 290520Z 2906/3006 14004KT P6SM SKC
     FM290900 16002KT 6SM BR SKC
      TEMPO 2910/2913 2SM BR SKC
     FM291400 17005KT P6SM SKC=



000
FTUS43 KMPX 290520
TAFAXN
TAF
KAXN 290520Z 2906/3006 18006KT P6SM FEW050
     FM290900 00000KT 6SM BR SKC
      TEMPO 2910/2913 4SM BR FEW200
     FM291400 18005KT P6SM SKC=



000
FTUS43 KMPX 290520
TAFMSP
TAF
KMSP 290520Z 2906/3012 14004KT P6SM FEW250
     FM291000 VRB03KT 4SM BR BCFG SCT003
     FM291400 15006KT P6SM SKC=



000
FTUS43 KMPX 290520
TAFRWF
TAF
KRWF 290520Z 2906/3006 14004KT P6SM SKC
     FM290900 16002KT 6SM BR SKC
      TEMPO 2910/2913 2SM BR SKC
     FM291400 17005KT P6SM SKC=



000
FTUS43 KMPX 290520
TAFAXN
TAF
KAXN 290520Z 2906/3006 18006KT P6SM FEW050
     FM290900 00000KT 6SM BR SKC
      TEMPO 2910/2913 4SM BR FEW200
     FM291400 18005KT P6SM SKC=



000
FTUS43 KMPX 290520
TAFSTC
TAF
KSTC 290520Z 2906/3006 18004KT P6SM FEW200
     FM290900 00000KT 3SM BR SKC
      TEMPO 2910/2913 1 1/2SM BR SKC
     FM291400 17005KT P6SM SKC=



000
FTUS43 KMPX 290520
TAFMSP
TAF
KMSP 290520Z 2906/3012 14004KT P6SM FEW250
     FM291000 VRB03KT 4SM BR BCFG SCT003
     FM291400 15006KT P6SM SKC=



000
FTUS43 KMPX 290520
TAFEAU
TAF
KEAU 290520Z 2906/3006 05004KT 6SM BR FEW200
     FM290700 VRB02KT 3SM BR BKN020
      TEMPO 2908/2912 1/4SM FG VV002
     FM291500 09004KT P6SM SCT020=



000
FTUS43 KMPX 290520
TAFEAU
TAF
KEAU 290520Z 2906/3006 05004KT 6SM BR FEW200
     FM290700 VRB02KT 3SM BR BKN020
      TEMPO 2908/2912 1/4SM FG VV002
     FM291500 09004KT P6SM SCT020=



000
FTUS43 KMPX 290520
TAFSTC
TAF
KSTC 290520Z 2906/3006 18004KT P6SM FEW200
     FM290900 00000KT 3SM BR SKC
      TEMPO 2910/2913 1 1/2SM BR SKC
     FM291400 17005KT P6SM SKC=



000
FTUS43 KMPX 290247 AAA
TAFMSP
TAF AMD
KMSP 290247Z 2903/3006 13008KT P6SM SCT250
     FM291000 VRB03KT 5SM BR BCFG SCT003
     FM291400 11004KT P6SM SKC=



    US Dept of Commerce
    National Oceanic and Atmospheric Administration
    National Weather Service
    1325 East West Highway
    Silver Spring, MD 20910
    Page Author: NWS Internet Services Team
Disclaimer
Information Quality
Credits
Glossary
Privacy Policy
Freedom of Information Act (FOIA)
About Us
Career Opportunities